createdAt,value
2022-08-16T00:01:16.651Z,28.92
2022-08-16T00:03:44.169Z,28.83
2022-08-16T00:06:12.435Z,33.10
2022-08-16T00:08:45.897Z,32.30
2022-08-16T00:11:16.575Z,30.33
2022-08-16T00:13:53.309Z,28.00
2022-08-16T00:17:05.645Z,28.27
2022-08-16T00:19:10.182Z,31.33
2022-08-16T00:21:41.423Z,28.25
2022-08-16T00:24:11.553Z,32.00
2022-08-16T00:26:44.136Z,27.08
2022-08-16T00:29:15.448Z,29.25
2022-08-16T00:31:58.957Z,32.60
2022-08-16T00:34:52.430Z,30.15
2022-08-16T00:37:17.361Z,31.38
2022-08-16T00:39:46.975Z,31.60
2022-08-16T00:42:30.673Z,30.17
2022-08-16T00:45:01.442Z,29.65
2022-08-16T00:47:35.884Z,30.40
2022-08-16T00:50:05.334Z,30.15
2022-08-16T00:52:39.142Z,29.90
2022-08-16T00:55:18.254Z,25.42
2022-08-16T00:57:58.539Z,27.70
2022-08-16T01:00:28.987Z,27.90
2022-08-16T01:02:57.315Z,30.98
2022-08-16T01:05:25.530Z,29.83
2022-08-16T01:07:53.728Z,30.23
2022-08-16T01:10:21.687Z,28.42
2022-08-16T01:13:04.639Z,30.48
2022-08-16T01:15:33.765Z,28.95
2022-08-16T01:18:02.157Z,29.50
2022-08-16T01:20:32.873Z,29.95
2022-08-16T01:23:08.780Z,29.13
2022-08-16T01:25:39.558Z,28.67
2022-08-16T01:28:08.817Z,31.98
2022-08-16T01:30:40.035Z,25.10
2022-08-16T01:33:19.357Z,29.77
2022-08-16T01:35:52.617Z,26.38
2022-08-16T01:38:25.624Z,29.67
2022-08-16T01:40:58.321Z,28.52
2022-08-16T01:43:29.602Z,27.17
2022-08-16T01:45:59.326Z,27.23
2022-08-16T01:48:27.761Z,30.35
2022-08-16T01:51:09.690Z,29.17
2022-08-16T01:53:43.337Z,31.48
2022-08-16T01:56:24.419Z,31.02
2022-08-16T01:58:52.450Z,32.65
2022-08-16T02:01:19.970Z,31.90
2022-08-16T02:03:50.599Z,27.45
2022-08-16T02:06:33.659Z,30.10
2022-08-16T02:09:02.351Z,30.88
2022-08-16T02:14:18.489Z,29.15
2022-08-16T02:16:48.943Z,28.90
2022-08-16T02:19:17.555Z,31.08
2022-08-16T02:22:08.181Z,31.20
2022-08-16T02:24:42.316Z,30.75
2022-08-16T02:27:13.656Z,34.30
2022-08-16T02:29:44.528Z,30.20
2022-08-16T02:35:00.090Z,33.03
2022-08-16T02:37:39.793Z,35.47
2022-08-16T02:40:16.912Z,33.33
2022-08-16T02:42:44.371Z,38.15
2022-08-16T02:45:13.668Z,36.53
2022-08-16T02:48:01.064Z,33.25
2022-08-16T02:50:55.402Z,31.20
2022-08-16T02:53:18.033Z,33.08
2022-08-16T02:55:46.052Z,33.97
2022-08-16T02:58:18.093Z,36.08
2022-08-16T03:00:50.281Z,35.97
2022-08-16T03:03:18.205Z,26.77
2022-08-16T03:05:50.047Z,29.27
2022-08-16T03:08:50.874Z,29.63
2022-08-16T03:11:16.776Z,27.08
2022-08-16T03:13:51.190Z,28.35
2022-08-16T03:16:37.566Z,26.10
2022-08-16T03:19:06.317Z,26.67
2022-08-16T03:21:37.323Z,25.17
2022-08-16T03:24:06.022Z,29.20
2022-08-16T03:26:53.441Z,26.33
2022-08-16T03:29:27.200Z,29.35
2022-08-16T03:31:59.665Z,28.85
2022-08-16T03:34:29.066Z,29.48
2022-08-16T03:36:57.878Z,29.45
2022-08-16T03:39:25.363Z,28.33
2022-08-16T03:41:59.918Z,31.88
2022-08-16T03:44:44.064Z,29.75
2022-08-16T03:47:18.853Z,32.15
2022-08-16T03:49:51.815Z,34.72
2022-08-16T03:52:20.220Z,34.10
2022-08-16T03:54:53.393Z,35.08
2022-08-16T03:57:24.857Z,35.72
2022-08-16T04:00:00.037Z,36.20
2022-08-16T04:02:31.698Z,31.67
2022-08-16T04:04:59.525Z,32.97
2022-08-16T04:07:27.124Z,35.45
2022-08-16T04:10:36.295Z,33.30
2022-08-16T04:12:54.510Z,36.15
2022-08-16T04:15:22.992Z,32.42
2022-08-16T04:17:55.834Z,35.58
2022-08-16T04:20:31.573Z,35.45
2022-08-16T04:23:01.865Z,39.65
2022-08-16T04:25:29.735Z,35.92
2022-08-16T04:28:54.632Z,39.65
2022-08-16T04:30:46.491Z,37.08
2022-08-16T04:33:16.635Z,43.58
2022-08-16T04:35:44.074Z,37.95
2022-08-16T04:38:21.388Z,42.90
2022-08-16T04:40:50.206Z,51.72
2022-08-16T04:43:18.625Z,41.78
2022-08-16T04:45:46.359Z,39.92
2022-08-16T04:48:28.530Z,42.00
2022-08-16T04:51:01.659Z,42.25
2022-08-16T04:53:39.564Z,39.00
2022-08-16T04:56:11.073Z,37.55
2022-08-16T04:58:45.622Z,42.63
2022-08-16T05:01:15.185Z,43.42
2022-08-16T05:04:00.351Z,44.55
2022-08-16T05:06:45.347Z,38.75
2022-08-16T05:09:13.594Z,44.92
2022-08-16T05:11:41.042Z,40.53
2022-08-16T05:14:09.038Z,42.50
2022-08-16T05:16:36.563Z,39.72
2022-08-16T05:19:04.858Z,43.90
2022-08-16T05:21:38.510Z,45.25
2022-08-16T05:24:07.133Z,44.30
2022-08-16T05:26:36.767Z,41.45
2022-08-16T05:29:04.793Z,39.22
2022-08-16T05:31:32.487Z,40.53
2022-08-16T05:34:03.733Z,42.58
2022-08-16T05:36:36.542Z,41.03
2022-08-16T05:39:05.490Z,36.13
2022-08-16T05:41:33.247Z,35.05
2022-08-16T05:44:23.201Z,34.70
2022-08-16T05:46:52.775Z,35.30
2022-08-16T05:49:22.213Z,31.27
2022-08-16T05:51:51.871Z,35.60
2022-08-16T05:54:24.905Z,34.75
2022-08-16T05:56:53.261Z,30.50
2022-08-16T05:59:22.108Z,29.67
2022-08-16T06:01:50.457Z,27.38
2022-08-16T06:04:35.167Z,30.20
2022-08-16T06:07:08.936Z,35.00
2022-08-16T06:09:43.817Z,32.75
2022-08-16T06:12:12.213Z,32.20
2022-08-16T06:14:40.231Z,30.42
2022-08-16T06:17:07.778Z,31.00
2022-08-16T06:19:35.791Z,32.67
2022-08-16T06:22:04.710Z,29.27
2022-08-16T06:24:54.280Z,27.13
2022-08-16T06:27:19.574Z,29.73
2022-08-16T06:29:50.050Z,31.05
2022-08-16T06:32:27.322Z,27.40
2022-08-16T06:35:02.310Z,26.33
2022-08-16T06:37:37.348Z,24.98
2022-08-16T06:40:12.993Z,25.60
2022-08-16T06:42:47.849Z,23.80
2022-08-16T06:45:24.114Z,21.17
2022-08-16T06:47:56.752Z,22.77
2022-08-16T06:50:29.551Z,21.48
2022-08-16T06:53:19.762Z,22.73
2022-08-16T06:55:46.604Z,19.67
2022-08-16T06:58:22.874Z,18.60
2022-08-16T07:00:59.828Z,19.98
2022-08-16T07:03:32.603Z,18.85
2022-08-16T07:06:15.375Z,20.60
2022-08-16T07:08:44.186Z,21.80
2022-08-16T07:11:11.645Z,18.15
2022-08-16T07:14:00.416Z,19.73
2022-08-16T07:16:27.814Z,17.48
2022-08-16T07:19:01.706Z,23.85
2022-08-16T07:21:45.540Z,18.20
2022-08-16T07:24:29.894Z,20.60
2022-08-16T07:26:58.836Z,20.90
2022-08-16T07:29:26.531Z,17.00
2022-08-16T07:31:59.497Z,19.83
2022-08-16T07:34:34.833Z,21.67
2022-08-16T07:37:06.347Z,19.42
2022-08-16T07:39:35.309Z,21.23
2022-08-16T07:42:25.850Z,18.27
2022-08-16T07:44:55.913Z,19.08
2022-08-16T07:47:31.303Z,20.27
2022-08-16T07:49:59.503Z,17.48
2022-08-16T07:52:29.678Z,18.35
2022-08-16T07:54:59.255Z,17.10
2022-08-16T07:57:26.696Z,18.02
2022-08-16T07:59:57.353Z,17.35
2022-08-16T08:02:27.528Z,21.20
2022-08-16T08:04:55.833Z,16.95
2022-08-16T08:07:27.592Z,17.85
2022-08-16T08:09:55.686Z,16.63
2022-08-16T08:12:32.447Z,15.93
2022-08-16T08:15:04.300Z,16.85
2022-08-16T08:17:42.580Z,16.88
2022-08-16T08:20:12.412Z,18.02
2022-08-16T08:22:39.910Z,17.85
2022-08-16T08:25:08.091Z,17.20
2022-08-16T08:27:44.194Z,18.52
2022-08-16T08:30:51.319Z,15.75
2022-08-16T08:33:01.043Z,15.52
2022-08-16T08:35:28.821Z,18.35
2022-08-16T08:37:56.690Z,17.05
2022-08-16T08:40:26.765Z,15.93
2022-08-16T08:43:00.885Z,17.20
2022-08-16T08:45:46.989Z,13.95
2022-08-16T08:48:33.836Z,14.05
2022-08-16T08:51:03.409Z,14.93
2022-08-16T08:53:30.963Z,13.25
2022-08-16T08:55:59.475Z,15.02
2022-08-16T08:58:34.334Z,12.15
2022-08-16T09:01:02.983Z,15.90
2022-08-16T09:03:32.370Z,13.45
2022-08-16T09:06:00.458Z,16.08
2022-08-16T09:08:28.407Z,15.35
2022-08-16T09:10:58.910Z,14.10
2022-08-16T09:13:32.820Z,11.05
2022-08-16T09:16:00.489Z,13.45
2022-08-16T09:18:35.830Z,12.63
2022-08-16T09:21:07.071Z,11.60
2022-08-16T09:23:37.508Z,13.10
2022-08-16T09:26:43.911Z,13.40
2022-08-16T09:29:16.871Z,14.73
2022-08-16T09:31:42.025Z,15.45
2022-08-16T09:34:10.539Z,13.52
2022-08-16T09:36:45.177Z,10.90
2022-08-16T09:39:15.734Z,12.02
2022-08-16T09:41:53.275Z,10.60
2022-08-16T09:45:12.044Z,12.10
2022-08-16T09:47:12.060Z,12.20
2022-08-16T09:49:40.770Z,10.80
2022-08-16T09:52:09.542Z,12.25
2022-08-16T09:54:37.942Z,10.35
2022-08-16T09:57:05.592Z,9.63
2022-08-16T09:59:38.607Z,12.00
2022-08-16T10:02:26.276Z,11.32
2022-08-16T10:04:55.089Z,9.95
2022-08-16T10:07:22.752Z,12.30
2022-08-16T10:09:55.095Z,9.48
2022-08-16T10:12:42.450Z,12.23
2022-08-16T10:15:15.802Z,13.95
2022-08-16T10:17:44.934Z,10.52
2022-08-16T10:20:28.614Z,9.20
2022-08-16T10:23:02.069Z,10.40
2022-08-16T10:27:17.978Z,10.07
2022-08-16T10:28:28.808Z,10.90
2022-08-16T10:30:59.086Z,9.55
2022-08-16T10:35:56.720Z,10.68
2022-08-16T10:38:28.299Z,9.25
2022-08-16T10:40:55.996Z,8.68
2022-08-16T10:43:23.395Z,11.32
2022-08-16T10:45:59.895Z,8.50
2022-08-16T10:48:29.579Z,10.75
2022-08-16T10:50:59.362Z,11.00
2022-08-16T10:53:32.472Z,9.38
2022-08-16T10:56:01.803Z,7.75
2022-08-16T10:58:34.000Z,8.70
2022-08-16T11:01:39.631Z,8.63
2022-08-16T11:03:54.541Z,9.65
2022-08-16T11:06:26.978Z,11.02
2022-08-16T11:14:33.362Z,7.65
2022-08-16T11:17:03.033Z,11.88
2022-08-16T11:22:42.262Z,9.45
2022-08-16T11:25:59.655Z,8.77
2022-08-16T11:28:03.276Z,8.55
2022-08-16T11:30:38.669Z,8.68
2022-08-16T11:33:06.714Z,6.78
2022-08-16T11:38:51.500Z,5.80
2022-08-16T11:41:11.623Z,9.48
2022-08-16T11:43:40.468Z,6.70
2022-08-16T11:46:45.344Z,8.25
2022-08-16T11:48:57.073Z,6.85
2022-08-16T11:51:25.847Z,7.65
2022-08-16T11:53:53.273Z,9.38
2022-08-16T11:56:28.575Z,6.38
2022-08-16T11:59:08.752Z,7.75
2022-08-16T12:01:54.752Z,5.40
2022-08-16T12:04:23.807Z,6.68
2022-08-16T12:06:54.859Z,6.63
2022-08-16T12:09:24.005Z,7.03
2022-08-16T12:11:53.309Z,6.43
2022-08-16T12:14:22.845Z,7.10
2022-08-16T12:16:55.541Z,5.80
2022-08-16T12:19:33.825Z,6.07
2022-08-16T12:22:19.359Z,7.25
2022-08-16T12:24:51.863Z,6.22
2022-08-16T12:27:20.652Z,7.38
2022-08-16T12:29:52.369Z,8.48
2022-08-16T12:32:37.682Z,8.68
2022-08-16T12:35:07.374Z,6.63
2022-08-16T12:37:36.508Z,8.05
2022-08-16T12:40:07.099Z,8.43
2022-08-16T12:42:53.612Z,8.45
2022-08-16T12:45:21.802Z,8.90
2022-08-16T12:48:32.727Z,11.07
2022-08-16T12:50:54.854Z,8.00
2022-08-16T12:53:25.942Z,6.82
2022-08-16T12:55:59.539Z,7.85
2022-08-16T12:58:48.455Z,5.10
2022-08-16T13:01:14.939Z,8.05
2022-08-16T13:03:44.100Z,7.68
2022-08-16T13:06:12.523Z,9.80
2022-08-16T13:08:42.029Z,7.18
2022-08-16T13:11:14.423Z,7.25
2022-08-16T13:13:45.207Z,10.35
2022-08-16T13:16:20.117Z,9.43
2022-08-16T13:18:52.592Z,7.07
2022-08-16T13:21:23.843Z,7.32
2022-08-16T13:23:55.279Z,8.50
2022-08-16T13:26:23.126Z,8.32
2022-08-16T13:28:50.882Z,5.38
2022-08-16T13:31:18.360Z,9.30
2022-08-16T13:33:46.334Z,5.32
2022-08-16T13:36:38.891Z,5.70
2022-08-16T13:39:03.655Z,5.18
2022-08-16T13:41:32.244Z,8.05
2022-08-16T13:44:00.398Z,6.40
2022-08-16T13:46:27.966Z,5.93
2022-08-16T13:48:56.231Z,5.53
2022-08-16T13:53:59.792Z,5.60
2022-08-16T13:56:37.297Z,3.50
2022-08-16T13:59:13.921Z,5.38
2022-08-16T14:01:47.019Z,6.72
2022-08-16T14:04:26.474Z,6.65
2022-08-16T14:06:54.614Z,6.97
2022-08-16T14:09:22.206Z,6.03
2022-08-16T14:11:53.737Z,5.63
2022-08-16T14:14:28.362Z,5.10
2022-08-16T14:19:24.091Z,6.13
2022-08-16T14:22:13.589Z,8.52
2022-08-16T14:24:47.113Z,4.43
2022-08-16T14:27:17.725Z,5.85
2022-08-16T14:29:45.574Z,5.38
2022-08-16T14:32:27.230Z,8.30
2022-08-16T14:35:02.500Z,7.00
2022-08-16T14:37:31.029Z,5.72
2022-08-16T14:39:59.549Z,9.10
2022-08-16T14:42:28.943Z,5.20
2022-08-16T14:44:56.913Z,5.07
2022-08-16T14:47:25.137Z,4.65
2022-08-16T14:50:01.441Z,7.65
2022-08-16T14:52:54.146Z,7.38
2022-08-16T14:55:17.062Z,5.93
2022-08-16T14:57:46.104Z,5.97
2022-08-16T15:00:18.028Z,6.57
2022-08-16T15:02:45.947Z,3.83
2022-08-16T15:05:15.163Z,6.43
2022-08-16T15:07:42.598Z,4.05
2022-08-16T15:10:19.263Z,6.03
2022-08-16T15:12:54.157Z,5.32
2022-08-16T15:15:23.922Z,5.00
2022-08-16T15:17:56.724Z,5.03
2022-08-16T15:20:26.238Z,6.20
2022-08-16T15:22:54.170Z,6.43
2022-08-16T15:25:23.396Z,5.32
2022-08-16T15:27:58.465Z,5.18
2022-08-16T15:30:48.251Z,3.80
2022-08-16T15:33:16.681Z,5.82
2022-08-16T15:35:44.438Z,4.40
2022-08-16T15:38:56.943Z,5.10
2022-08-16T15:40:59.588Z,7.45
2022-08-16T15:43:39.549Z,4.43
2022-08-16T15:46:35.480Z,5.20
2022-08-16T15:49:13.329Z,5.45
2022-08-16T15:51:41.190Z,4.50
2022-08-16T15:54:29.388Z,5.10
2022-08-16T15:57:00.322Z,5.82
2022-08-16T15:59:48.073Z,8.60
2022-08-16T16:02:24.471Z,5.63
2022-08-16T16:04:56.706Z,5.60
2022-08-16T16:07:24.839Z,4.50
2022-08-16T16:09:53.355Z,7.53
2022-08-16T16:12:51.429Z,6.22
2022-08-16T16:15:09.967Z,5.30
2022-08-16T16:20:04.858Z,6.13
2022-08-16T16:22:33.340Z,4.35
2022-08-16T16:25:00.774Z,5.90
2022-08-16T16:27:28.392Z,7.75
2022-08-16T16:30:01.522Z,5.18
2022-08-16T16:32:34.639Z,4.18
2022-08-16T16:35:02.447Z,5.88
2022-08-16T16:37:31.038Z,6.30
2022-08-16T16:39:58.716Z,5.07
2022-08-16T16:42:29.907Z,4.85
2022-08-16T16:45:01.191Z,6.32
2022-08-16T16:47:29.197Z,6.35
2022-08-16T16:49:58.089Z,5.40
2022-08-16T16:52:43.468Z,4.55
2022-08-16T16:55:12.685Z,5.25
2022-08-16T16:57:57.592Z,5.63
2022-08-16T17:00:30.278Z,6.40
2022-08-16T17:03:05.994Z,7.88
2022-08-16T17:06:00.195Z,6.72
2022-08-16T17:08:30.666Z,7.22
2022-08-16T17:10:58.405Z,5.72
2022-08-16T17:13:27.539Z,4.63
2022-08-16T17:15:55.258Z,7.38
2022-08-16T17:19:18.955Z,8.25
2022-08-16T17:21:12.421Z,5.25
2022-08-16T17:23:58.388Z,6.28
2022-08-16T17:26:30.028Z,6.93
2022-08-16T17:29:02.735Z,7.40
2022-08-16T17:31:40.916Z,8.55
2022-08-16T17:34:29.349Z,7.85
2022-08-16T17:37:00.650Z,5.05
2022-08-16T17:39:33.034Z,5.10
2022-08-16T17:42:01.069Z,6.65
2022-08-16T17:44:28.716Z,7.00
2022-08-16T17:46:56.135Z,6.00
2022-08-16T17:49:23.682Z,5.88
2022-08-16T17:51:51.645Z,8.90
2022-08-16T17:54:30.853Z,6.55
2022-08-16T17:56:58.528Z,7.30
2022-08-16T17:59:28.489Z,6.45
2022-08-16T18:01:56.078Z,6.05
2022-08-16T18:04:48.859Z,6.93
2022-08-16T18:07:11.274Z,8.25
2022-08-16T18:09:41.095Z,7.10
2022-08-16T18:12:23.974Z,5.38
2022-08-16T18:15:02.918Z,8.13
2022-08-16T18:17:30.363Z,8.13
2022-08-16T18:19:57.847Z,5.80
2022-08-16T18:22:30.242Z,7.43
2022-08-16T18:24:59.516Z,8.18
2022-08-16T18:27:28.330Z,8.02
2022-08-16T18:29:56.117Z,6.38
2022-08-16T18:32:24.947Z,7.38
2022-08-16T18:34:52.727Z,9.07
2022-08-16T18:37:22.330Z,7.60
2022-08-16T18:39:49.781Z,6.18
2022-08-16T18:42:19.293Z,8.05
2022-08-16T18:44:46.787Z,8.18
2022-08-16T18:47:14.203Z,6.97
2022-08-16T18:49:41.651Z,7.18
2022-08-16T18:52:09.056Z,7.57
2022-08-16T18:55:02.674Z,8.15
2022-08-16T18:57:25.219Z,8.40
2022-08-16T18:59:52.671Z,7.72
2022-08-16T19:02:57.396Z,9.65
2022-08-16T19:05:13.371Z,10.82
2022-08-16T19:07:40.937Z,9.13
2022-08-16T19:10:09.066Z,6.85
2022-08-16T19:12:42.420Z,9.02
2022-08-16T19:15:14.124Z,9.30
2022-08-16T19:17:41.940Z,11.48
2022-08-16T19:20:10.959Z,8.82
2022-08-16T19:23:02.326Z,10.15
2022-08-16T19:25:46.308Z,12.90
2022-08-16T19:28:21.782Z,10.27
2022-08-16T19:33:32.608Z,9.18
2022-08-16T19:36:00.116Z,12.73
2022-08-16T19:38:27.628Z,10.27
2022-08-16T19:40:55.201Z,10.85
2022-08-16T19:43:24.033Z,10.05
2022-08-16T19:45:52.613Z,9.43
2022-08-16T19:48:20.147Z,14.10
2022-08-16T19:50:47.583Z,15.35
2022-08-16T19:53:18.820Z,13.30
2022-08-16T19:55:47.297Z,11.23
2022-08-16T19:58:16.799Z,10.48
2022-08-16T20:00:47.048Z,11.27
2022-08-16T20:03:18.430Z,10.60
2022-08-16T20:05:46.022Z,10.77
2022-08-16T20:08:13.686Z,11.25
2022-08-16T20:10:42.001Z,13.25
2022-08-16T20:13:12.102Z,9.68
2022-08-16T20:18:21.487Z,13.35
2022-08-16T20:20:53.171Z,12.05
2022-08-16T20:23:24.765Z,11.95
2022-08-16T20:25:53.474Z,11.57
2022-08-16T20:28:50.008Z,9.32
2022-08-16T20:31:08.305Z,12.57
2022-08-16T20:33:37.084Z,9.45
2022-08-16T20:36:04.889Z,9.32
2022-08-16T20:38:32.335Z,11.50
2022-08-16T20:40:59.728Z,13.20
2022-08-16T20:43:27.186Z,11.02
2022-08-16T20:45:54.624Z,11.23
2022-08-16T20:48:22.030Z,15.45
2022-08-16T20:50:50.787Z,11.80
2022-08-16T20:53:18.166Z,11.18
2022-08-16T20:55:45.656Z,11.25
2022-08-16T20:58:13.073Z,11.52
2022-08-16T21:00:41.178Z,12.32
2022-08-16T21:03:09.335Z,15.63
2022-08-16T21:05:36.836Z,11.10
2022-08-16T21:08:50.018Z,13.02
2022-08-16T21:10:53.798Z,9.82
2022-08-16T21:13:21.799Z,11.38
2022-08-16T21:15:49.270Z,11.10
2022-08-16T21:18:16.746Z,14.10
2022-08-16T21:20:44.261Z,14.75
2022-08-16T21:23:13.031Z,9.70
2022-08-16T21:25:57.695Z,12.32
2022-08-16T21:28:36.852Z,12.05
2022-08-16T21:33:37.431Z,15.63
2022-08-16T21:36:05.302Z,14.75
2022-08-16T21:38:34.039Z,12.48
2022-08-16T21:41:02.368Z,11.93
2022-08-16T21:43:32.216Z,11.60
2022-08-16T21:46:00.058Z,10.90
2022-08-16T21:48:35.092Z,11.77
2022-08-16T21:51:03.930Z,14.43
2022-08-16T21:53:31.383Z,11.75
2022-08-16T21:56:00.412Z,14.77
2022-08-16T21:58:28.055Z,13.50
2022-08-16T22:00:55.711Z,11.55
2022-08-16T22:03:23.881Z,12.68
2022-08-16T22:06:11.950Z,13.65
2022-08-16T22:08:39.455Z,10.98
2022-08-16T22:11:16.897Z,12.18
2022-08-16T22:13:52.799Z,10.05
2022-08-16T22:16:27.227Z,13.07
2022-08-16T22:18:54.729Z,14.55
2022-08-16T22:21:22.210Z,10.45
2022-08-16T22:23:55.182Z,12.98
2022-08-16T22:26:29.118Z,9.55
2022-08-16T22:28:58.919Z,11.38
2022-08-16T22:31:26.498Z,13.30
2022-08-16T22:33:53.951Z,14.93
2022-08-16T22:36:21.430Z,12.00
2022-08-16T22:38:55.872Z,13.07
2022-08-16T22:41:25.204Z,11.27
2022-08-16T22:43:54.010Z,12.23
2022-08-16T22:46:21.472Z,14.70
2022-08-16T22:48:50.697Z,13.15
2022-08-16T22:51:18.625Z,12.98
2022-08-16T22:53:46.109Z,12.95
2022-08-16T22:56:15.476Z,11.98
2022-08-16T22:58:43.030Z,12.00
2022-08-16T23:01:12.676Z,13.00
2022-08-16T23:03:41.047Z,11.90
2022-08-16T23:06:09.157Z,15.13
2022-08-16T23:08:40.602Z,11.35
2022-08-16T23:11:09.215Z,15.00
2022-08-16T23:13:36.750Z,13.38
2022-08-16T23:16:11.378Z,15.25
2022-08-16T23:18:41.614Z,11.82
2022-08-16T23:21:09.842Z,12.55
2022-08-16T23:23:38.132Z,13.68
2022-08-16T23:26:46.782Z,13.73
2022-08-16T23:28:53.369Z,16.52
2022-08-16T23:31:20.850Z,12.18
2022-08-16T23:33:49.649Z,14.90
2022-08-16T23:36:17.092Z,12.90
2022-08-16T23:38:44.576Z,12.77
2022-08-16T23:41:12.919Z,15.80
2022-08-16T23:43:41.833Z,12.32
2022-08-16T23:46:11.644Z,12.13
2022-08-16T23:49:56.960Z,14.07
2022-08-16T23:51:29.018Z,12.68
2022-08-16T23:53:56.506Z,14.48
2022-08-16T23:56:23.899Z,13.02
2022-08-16T23:58:54.454Z,16.45
